sensor_id;sensor_type;location;lat;lon;timestamp;temperature;humidity
53310;DHT22;39197;53.200;5.792;2023-04-24T00:02:03;10.90;99.90
53310;DHT22;39197;53.200;5.792;2023-04-24T00:04:29;10.90;99.90
53310;DHT22;39197;53.200;5.792;2023-04-24T00:06:55;10.90;99.90
53310;DHT22;39197;53.200;5.792;2023-04-24T00:09:22;10.90;99.90
53310;DHT22;39197;53.200;5.792;2023-04-24T00:11:48;10.90;99.90
53310;DHT22;39197;53.200;5.792;2023-04-24T00:14:14;10.90;99.90
53310;DHT22;39197;53.200;5.792;2023-04-24T00:16:39;10.90;99.90
53310;DHT22;39197;53.200;5.792;2023-04-24T00:19:05;10.90;99.90
53310;DHT22;39197;53.200;5.792;2023-04-24T00:21:32;10.90;99.90
53310;DHT22;39197;53.200;5.792;2023-04-24T00:23:58;11.00;99.90
53310;DHT22;39197;53.200;5.792;2023-04-24T00:26:23;11.00;99.90
53310;DHT22;39197;53.200;5.792;2023-04-24T00:28:49;11.00;99.90
53310;DHT22;39197;53.200;5.792;2023-04-24T00:31:15;11.00;99.90
53310;DHT22;39197;53.200;5.792;2023-04-24T00:33:40;11.00;99.90
53310;DHT22;39197;53.200;5.792;2023-04-24T00:36:06;11.10;99.90
53310;DHT22;39197;53.200;5.792;2023-04-24T00:38:32;11.00;99.90
53310;DHT22;39197;53.200;5.792;2023-04-24T00:40:58;10.90;99.90
53310;DHT22;39197;53.200;5.792;2023-04-24T00:43:24;11.00;99.90
53310;DHT22;39197;53.200;5.792;2023-04-24T00:45:50;10.90;99.90
53310;DHT22;39197;53.200;5.792;2023-04-24T00:48:16;11.00;99.90
53310;DHT22;39197;53.200;5.792;2023-04-24T00:50:42;11.00;99.90
53310;DHT22;39197;53.200;5.792;2023-04-24T00:53:08;11.00;99.90
53310;DHT22;39197;53.200;5.792;2023-04-24T00:55:33;11.00;99.90
53310;DHT22;39197;53.200;5.792;2023-04-24T00:57:59;11.00;99.90
53310;DHT22;39197;53.200;5.792;2023-04-24T01:00:25;11.00;99.90
53310;DHT22;39197;53.200;5.792;2023-04-24T01:02:51;11.00;99.90
53310;DHT22;39197;53.200;5.792;2023-04-24T01:05:17;11.00;99.90
53310;DHT22;39197;53.200;5.792;2023-04-24T01:07:45;11.00;99.90
53310;DHT22;39197;53.200;5.792;2023-04-24T01:10:14;10.90;99.90
53310;DHT22;39197;53.200;5.792;2023-04-24T01:12:40;11.00;99.90
53310;DHT22;39197;53.200;5.792;2023-04-24T01:15:06;11.00;99.90
53310;DHT22;39197;53.200;5.792;2023-04-24T01:17:33;11.00;99.90
53310;DHT22;39197;53.200;5.792;2023-04-24T01:19:59;10.90;99.90
53310;DHT22;39197;53.200;5.792;2023-04-24T01:22:26;10.90;99.90
53310;DHT22;39197;53.200;5.792;2023-04-24T01:24:53;11.00;99.90
53310;DHT22;39197;53.200;5.792;2023-04-24T01:27:19;10.90;99.90
53310;DHT22;39197;53.200;5.792;2023-04-24T01:29:45;10.90;99.90
53310;DHT22;39197;53.200;5.792;2023-04-24T01:32:11;10.90;99.90
53310;DHT22;39197;53.200;5.792;2023-04-24T01:34:37;11.00;99.90
53310;DHT22;39197;53.200;5.792;2023-04-24T01:37:03;11.00;99.90
53310;DHT22;39197;53.200;5.792;2023-04-24T01:39:30;11.00;99.90
53310;DHT22;39197;53.200;5.792;2023-04-24T01:41:56;10.90;99.90
53310;DHT22;39197;53.200;5.792;2023-04-24T01:44:23;11.00;99.90
53310;DHT22;39197;53.200;5.792;2023-04-24T01:46:48;11.00;99.90
53310;DHT22;39197;53.200;5.792;2023-04-24T01:49:14;11.00;99.90
53310;DHT22;39197;53.200;5.792;2023-04-24T01:51:40;10.90;99.90
53310;DHT22;39197;53.200;5.792;2023-04-24T01:54:05;10.90;99.90
53310;DHT22;39197;53.200;5.792;2023-04-24T01:56:33;10.90;99.90
53310;DHT22;39197;53.200;5.792;2023-04-24T01:59:00;10.90;99.90
53310;DHT22;39197;53.200;5.792;2023-04-24T02:01:26;10.80;99.90
53310;DHT22;39197;53.200;5.792;2023-04-24T02:03:52;10.80;99.90
53310;DHT22;39197;53.200;5.792;2023-04-24T02:06:17;10.80;99.90
53310;DHT22;39197;53.200;5.792;2023-04-24T02:08:44;10.80;99.90
53310;DHT22;39197;53.200;5.792;2023-04-24T02:11:09;10.80;99.90
53310;DHT22;39197;53.200;5.792;2023-04-24T02:13:35;10.80;99.90
53310;DHT22;39197;53.200;5.792;2023-04-24T02:16:01;10.90;99.90
53310;DHT22;39197;53.200;5.792;2023-04-24T02:18:26;10.80;99.90
53310;DHT22;39197;53.200;5.792;2023-04-24T02:20:52;10.80;99.90
53310;DHT22;39197;53.200;5.792;2023-04-24T02:23:18;10.80;99.90
53310;DHT22;39197;53.200;5.792;2023-04-24T02:25:44;10.80;99.90
53310;DHT22;39197;53.200;5.792;2023-04-24T02:28:09;10.60;99.90
53310;DHT22;39197;53.200;5.792;2023-04-24T02:30:35;10.50;99.90
53310;DHT22;39197;53.200;5.792;2023-04-24T02:33:00;10.40;99.90
53310;DHT22;39197;53.200;5.792;2023-04-24T02:35:26;10.30;99.90
53310;DHT22;39197;53.200;5.792;2023-04-24T02:37:51;10.30;99.90
53310;DHT22;39197;53.200;5.792;2023-04-24T02:40:17;10.20;99.90
53310;DHT22;39197;53.200;5.792;2023-04-24T02:42:43;10.10;99.90
53310;DHT22;39197;53.200;5.792;2023-04-24T02:45:08;10.10;99.90
53310;DHT22;39197;53.200;5.792;2023-04-24T02:47:34;10.10;99.90
53310;DHT22;39197;53.200;5.792;2023-04-24T02:50:00;10.00;99.90
53310;DHT22;39197;53.200;5.792;2023-04-24T02:52:26;10.10;99.90
53310;DHT22;39197;53.200;5.792;2023-04-24T02:54:52;10.10;99.90
53310;DHT22;39197;53.200;5.792;2023-04-24T02:57:19;10.00;99.90
53310;DHT22;39197;53.200;5.792;2023-04-24T02:59:44;10.00;99.90
53310;DHT22;39197;53.200;5.792;2023-04-24T03:02:10;10.00;99.90
53310;DHT22;39197;53.200;5.792;2023-04-24T03:04:35;10.00;99.90
53310;DHT22;39197;53.200;5.792;2023-04-24T03:07:01;10.00;99.90
53310;DHT22;39197;53.200;5.792;2023-04-24T03:09:27;10.00;99.90
53310;DHT22;39197;53.200;5.792;2023-04-24T03:11:52;9.90;99.90
53310;DHT22;39197;53.200;5.792;2023-04-24T03:14:18;10.00;99.90
53310;DHT22;39197;53.200;5.792;2023-04-24T03:16:44;9.90;99.90
53310;DHT22;39197;53.200;5.792;2023-04-24T03:19:09;10.00;99.90
53310;DHT22;39197;53.200;5.792;2023-04-24T03:21:35;9.90;99.90
53310;DHT22;39197;53.200;5.792;2023-04-24T03:24:06;9.90;99.90
53310;DHT22;39197;53.200;5.792;2023-04-24T03:26:32;9.90;99.90
53310;DHT22;39197;53.200;5.792;2023-04-24T03:28:57;9.90;99.90
53310;DHT22;39197;53.200;5.792;2023-04-24T03:31:23;9.90;99.90
53310;DHT22;39197;53.200;5.792;2023-04-24T03:33:48;9.80;99.90
53310;DHT22;39197;53.200;5.792;2023-04-24T03:36:14;9.90;99.90
53310;DHT22;39197;53.200;5.792;2023-04-24T03:38:40;9.90;99.90
53310;DHT22;39197;53.200;5.792;2023-04-24T03:41:05;9.90;99.90
53310;DHT22;39197;53.200;5.792;2023-04-24T03:43:31;9.80;99.90
53310;DHT22;39197;53.200;5.792;2023-04-24T03:45:58;9.80;99.90
53310;DHT22;39197;53.200;5.792;2023-04-24T03:48:24;9.80;99.90
53310;DHT22;39197;53.200;5.792;2023-04-24T03:50:50;9.70;99.90
53310;DHT22;39197;53.200;5.792;2023-04-24T03:53:15;9.70;99.90
53310;DHT22;39197;53.200;5.792;2023-04-24T03:55:41;9.70;99.90
53310;DHT22;39197;53.200;5.792;2023-04-24T03:58:06;9.70;99.90
53310;DHT22;39197;53.200;5.792;2023-04-24T04:00:32;9.60;99.90
53310;DHT22;39197;53.200;5.792;2023-04-24T04:02:58;9.60;99.90
53310;DHT22;39197;53.200;5.792;2023-04-24T04:05:24;9.60;99.90
53310;DHT22;39197;53.200;5.792;2023-04-24T04:07:49;9.60;99.90
53310;DHT22;39197;53.200;5.792;2023-04-24T04:10:15;9.60;99.90
53310;DHT22;39197;53.200;5.792;2023-04-24T04:12:42;9.60;99.90
53310;DHT22;39197;53.200;5.792;2023-04-24T04:15:08;9.50;99.90
53310;DHT22;39197;53.200;5.792;2023-04-24T04:17:33;9.60;99.90
53310;DHT22;39197;53.200;5.792;2023-04-24T04:19:59;9.60;99.90
53310;DHT22;39197;53.200;5.792;2023-04-24T04:22:25;9.50;99.90
53310;DHT22;39197;53.200;5.792;2023-04-24T04:24:51;9.60;99.90
53310;DHT22;39197;53.200;5.792;2023-04-24T04:27:16;9.60;99.90
53310;DHT22;39197;53.200;5.792;2023-04-24T04:29:44;9.50;99.90
53310;DHT22;39197;53.200;5.792;2023-04-24T04:32:09;9.50;99.90
53310;DHT22;39197;53.200;5.792;2023-04-24T04:34:35;9.50;99.90
53310;DHT22;39197;53.200;5.792;2023-04-24T04:37:03;9.60;99.90
53310;DHT22;39197;53.200;5.792;2023-04-24T04:39:28;9.50;99.90
53310;DHT22;39197;53.200;5.792;2023-04-24T04:41:55;9.40;99.90
53310;DHT22;39197;53.200;5.792;2023-04-24T04:44:20;9.40;99.90
53310;DHT22;39197;53.200;5.792;2023-04-24T04:46:46;9.40;99.90
53310;DHT22;39197;53.200;5.792;2023-04-24T04:49:12;9.50;99.90
53310;DHT22;39197;53.200;5.792;2023-04-24T04:51:42;9.40;99.90
53310;DHT22;39197;53.200;5.792;2023-04-24T04:54:07;9.50;99.90
53310;DHT22;39197;53.200;5.792;2023-04-24T04:56:33;9.50;99.90
53310;DHT22;39197;53.200;5.792;2023-04-24T04:58:58;9.50;99.90
53310;DHT22;39197;53.200;5.792;2023-04-24T05:01:25;9.50;99.90
53310;DHT22;39197;53.200;5.792;2023-04-24T05:03:52;9.50;99.90
53310;DHT22;39197;53.200;5.792;2023-04-24T05:06:18;9.50;99.90
53310;DHT22;39197;53.200;5.792;2023-04-24T05:08:44;9.50;99.90
53310;DHT22;39197;53.200;5.792;2023-04-24T05:11:09;9.50;99.90
53310;DHT22;39197;53.200;5.792;2023-04-24T05:13:35;9.50;99.90
53310;DHT22;39197;53.200;5.792;2023-04-24T05:16:01;9.60;99.90
53310;DHT22;39197;53.200;5.792;2023-04-24T05:18:26;9.60;99.90
53310;DHT22;39197;53.200;5.792;2023-04-24T05:20:52;9.60;99.90
53310;DHT22;39197;53.200;5.792;2023-04-24T05:23:17;9.50;99.90
53310;DHT22;39197;53.200;5.792;2023-04-24T05:25:43;9.50;99.90
53310;DHT22;39197;53.200;5.792;2023-04-24T05:28:08;9.60;99.90
53310;DHT22;39197;53.200;5.792;2023-04-24T05:30:34;9.60;99.90
53310;DHT22;39197;53.200;5.792;2023-04-24T05:33:00;9.60;99.90
53310;DHT22;39197;53.200;5.792;2023-04-24T05:35:25;9.60;99.90
53310;DHT22;39197;53.200;5.792;2023-04-24T05:37:51;9.50;99.90
53310;DHT22;39197;53.200;5.792;2023-04-24T05:40:16;9.50;99.90
53310;DHT22;39197;53.200;5.792;2023-04-24T05:42:42;9.50;99.90
53310;DHT22;39197;53.200;5.792;2023-04-24T05:45:08;9.50;99.90
53310;DHT22;39197;53.200;5.792;2023-04-24T05:47:34;9.50;99.90
53310;DHT22;39197;53.200;5.792;2023-04-24T05:50:00;9.50;99.90
53310;DHT22;39197;53.200;5.792;2023-04-24T05:52:26;9.50;99.90
53310;DHT22;39197;53.200;5.792;2023-04-24T05:54:51;9.40;99.90
53310;DHT22;39197;53.200;5.792;2023-04-24T05:57:17;9.40;99.90
53310;DHT22;39197;53.200;5.792;2023-04-24T05:59:42;9.50;99.90
53310;DHT22;39197;53.200;5.792;2023-04-24T06:02:08;9.40;99.90
53310;DHT22;39197;53.200;5.792;2023-04-24T06:04:33;9.40;99.90
53310;DHT22;39197;53.200;5.792;2023-04-24T06:06:59;9.30;99.90
53310;DHT22;39197;53.200;5.792;2023-04-24T06:09:25;9.40;99.90
53310;DHT22;39197;53.200;5.792;2023-04-24T06:11:51;9.30;99.90
53310;DHT22;39197;53.200;5.792;2023-04-24T06:14:22;9.30;99.90
53310;DHT22;39197;53.200;5.792;2023-04-24T06:16:47;9.30;99.90
53310;DHT22;39197;53.200;5.792;2023-04-24T06:19:13;9.30;99.90
53310;DHT22;39197;53.200;5.792;2023-04-24T06:21:38;9.40;99.90
53310;DHT22;39197;53.200;5.792;2023-04-24T06:24:04;9.40;99.90
53310;DHT22;39197;53.200;5.792;2023-04-24T06:26:30;9.30;99.90
53310;DHT22;39197;53.200;5.792;2023-04-24T06:28:56;9.20;99.90
53310;DHT22;39197;53.200;5.792;2023-04-24T06:31:23;9.30;99.90
53310;DHT22;39197;53.200;5.792;2023-04-24T06:33:49;9.30;99.90
53310;DHT22;39197;53.200;5.792;2023-04-24T06:36:15;9.20;99.90
53310;DHT22;39197;53.200;5.792;2023-04-24T06:38:41;9.20;99.90
53310;DHT22;39197;53.200;5.792;2023-04-24T06:41:07;9.10;99.90
53310;DHT22;39197;53.200;5.792;2023-04-24T06:43:33;9.10;99.90
53310;DHT22;39197;53.200;5.792;2023-04-24T06:45:59;9.10;99.90
53310;DHT22;39197;53.200;5.792;2023-04-24T06:48:25;9.20;99.90
53310;DHT22;39197;53.200;5.792;2023-04-24T06:50:52;9.00;99.90
53310;DHT22;39197;53.200;5.792;2023-04-24T06:53:17;9.00;99.90
53310;DHT22;39197;53.200;5.792;2023-04-24T06:55:43;9.00;99.90
53310;DHT22;39197;53.200;5.792;2023-04-24T06:58:11;9.00;99.90
53310;DHT22;39197;53.200;5.792;2023-04-24T07:00:37;9.00;99.90
53310;DHT22;39197;53.200;5.792;2023-04-24T07:03:03;9.00;99.90
53310;DHT22;39197;53.200;5.792;2023-04-24T07:05:30;9.00;99.90
53310;DHT22;39197;53.200;5.792;2023-04-24T07:07:56;9.00;99.90
53310;DHT22;39197;53.200;5.792;2023-04-24T07:10:23;8.90;99.90
53310;DHT22;39197;53.200;5.792;2023-04-24T07:12:49;9.00;99.90
53310;DHT22;39197;53.200;5.792;2023-04-24T07:15:15;9.00;99.90
53310;DHT22;39197;53.200;5.792;2023-04-24T07:17:41;8.90;99.90
53310;DHT22;39197;53.200;5.792;2023-04-24T07:20:11;8.90;99.90
53310;DHT22;39197;53.200;5.792;2023-04-24T07:22:37;8.90;99.90
53310;DHT22;39197;53.200;5.792;2023-04-24T07:25:04;8.90;99.90
53310;DHT22;39197;53.200;5.792;2023-04-24T07:27:30;8.90;99.90
53310;DHT22;39197;53.200;5.792;2023-04-24T07:29:55;8.90;99.90
53310;DHT22;39197;53.200;5.792;2023-04-24T07:32:21;8.90;99.90
53310;DHT22;39197;53.200;5.792;2023-04-24T07:34:47;9.00;99.90
53310;DHT22;39197;53.200;5.792;2023-04-24T07:37:12;8.90;99.90
53310;DHT22;39197;53.200;5.792;2023-04-24T07:39:38;9.00;99.90
53310;DHT22;39197;53.200;5.792;2023-04-24T07:42:03;8.90;99.90
53310;DHT22;39197;53.200;5.792;2023-04-24T07:44:29;9.00;99.90
53310;DHT22;39197;53.200;5.792;2023-04-24T07:46:55;9.00;99.90
53310;DHT22;39197;53.200;5.792;2023-04-24T07:49:21;9.00;99.90
53310;DHT22;39197;53.200;5.792;2023-04-24T07:51:48;9.00;99.90
53310;DHT22;39197;53.200;5.792;2023-04-24T07:54:14;9.10;99.90
53310;DHT22;39197;53.200;5.792;2023-04-24T07:56:41;9.10;99.90
53310;DHT22;39197;53.200;5.792;2023-04-24T07:59:08;9.10;99.90
53310;DHT22;39197;53.200;5.792;2023-04-24T08:01:35;9.20;99.90
53310;DHT22;39197;53.200;5.792;2023-04-24T08:04:01;9.20;99.90
53310;DHT22;39197;53.200;5.792;2023-04-24T08:06:27;9.30;99.90
53310;DHT22;39197;53.200;5.792;2023-04-24T08:08:57;9.40;99.90
53310;DHT22;39197;53.200;5.792;2023-04-24T08:11:24;9.40;99.90
53310;DHT22;39197;53.200;5.792;2023-04-24T08:13:49;9.40;99.90
53310;DHT22;39197;53.200;5.792;2023-04-24T08:16:15;9.50;99.90
53310;DHT22;39197;53.200;5.792;2023-04-24T08:18:41;9.50;99.90
53310;DHT22;39197;53.200;5.792;2023-04-24T08:21:06;9.60;99.90
53310;DHT22;39197;53.200;5.792;2023-04-24T08:23:32;9.50;99.90
53310;DHT22;39197;53.200;5.792;2023-04-24T08:25:57;9.40;99.90
53310;DHT22;39197;53.200;5.792;2023-04-24T08:28:23;9.30;99.90
53310;DHT22;39197;53.200;5.792;2023-04-24T08:30:49;9.30;99.90
53310;DHT22;39197;53.200;5.792;2023-04-24T08:33:23;9.40;99.90
53310;DHT22;39197;53.200;5.792;2023-04-24T08:35:48;9.40;99.90
53310;DHT22;39197;53.200;5.792;2023-04-24T08:38:15;9.50;99.90
53310;DHT22;39197;53.200;5.792;2023-04-24T08:40:41;9.60;99.90
53310;DHT22;39197;53.200;5.792;2023-04-24T08:43:07;9.80;99.90
53310;DHT22;39197;53.200;5.792;2023-04-24T08:45:33;9.60;99.90
53310;DHT22;39197;53.200;5.792;2023-04-24T08:47:58;9.70;99.90
53310;DHT22;39197;53.200;5.792;2023-04-24T08:50:25;9.90;99.90
53310;DHT22;39197;53.200;5.792;2023-04-24T08:52:51;10.00;99.90
53310;DHT22;39197;53.200;5.792;2023-04-24T08:55:19;10.20;99.90
53310;DHT22;39197;53.200;5.792;2023-04-24T08:57:49;10.20;99.90
53310;DHT22;39197;53.200;5.792;2023-04-24T09:00:16;10.40;99.90
53310;DHT22;39197;53.200;5.792;2023-04-24T09:02:42;10.40;99.90
53310;DHT22;39197;53.200;5.792;2023-04-24T09:05:10;10.50;99.90
53310;DHT22;39197;53.200;5.792;2023-04-24T09:07:36;10.60;99.90
53310;DHT22;39197;53.200;5.792;2023-04-24T09:10:04;10.70;99.90
53310;DHT22;39197;53.200;5.792;2023-04-24T09:12:30;10.90;99.90
53310;DHT22;39197;53.200;5.792;2023-04-24T09:14:56;11.30;99.90
53310;DHT22;39197;53.200;5.792;2023-04-24T09:17:22;11.40;99.90
53310;DHT22;39197;53.200;5.792;2023-04-24T09:19:50;11.30;99.90
53310;DHT22;39197;53.200;5.792;2023-04-24T09:22:15;11.20;99.90
53310;DHT22;39197;53.200;5.792;2023-04-24T09:24:41;11.00;99.90
53310;DHT22;39197;53.200;5.792;2023-04-24T09:27:07;10.80;99.90
53310;DHT22;39197;53.200;5.792;2023-04-24T09:29:33;10.70;99.90
53310;DHT22;39197;53.200;5.792;2023-04-24T09:31:59;10.70;99.90
53310;DHT22;39197;53.200;5.792;2023-04-24T09:34:28;10.70;99.90
53310;DHT22;39197;53.200;5.792;2023-04-24T09:36:54;10.70;99.90
53310;DHT22;39197;53.200;5.792;2023-04-24T09:39:20;10.60;99.90
53310;DHT22;39197;53.200;5.792;2023-04-24T09:41:47;10.60;99.90
53310;DHT22;39197;53.200;5.792;2023-04-24T09:44:17;10.40;99.90
53310;DHT22;39197;53.200;5.792;2023-04-24T09:46:46;10.40;99.90
53310;DHT22;39197;53.200;5.792;2023-04-24T09:49:15;10.30;99.90
53310;DHT22;39197;53.200;5.792;2023-04-24T09:51:42;10.20;99.90
53310;DHT22;39197;53.200;5.792;2023-04-24T09:54:15;10.10;99.90
53310;DHT22;39197;53.200;5.792;2023-04-24T09:56:46;10.20;99.90
53310;DHT22;39197;53.200;5.792;2023-04-24T09:59:14;10.00;99.90
53310;DHT22;39197;53.200;5.792;2023-04-24T10:01:40;9.90;99.90
53310;DHT22;39197;53.200;5.792;2023-04-24T10:04:18;9.90;99.90
53310;DHT22;39197;53.200;5.792;2023-04-24T10:06:45;10.00;99.90
53310;DHT22;39197;53.200;5.792;2023-04-24T10:09:11;9.90;99.90
53310;DHT22;39197;53.200;5.792;2023-04-24T10:11:43;10.00;99.90
53310;DHT22;39197;53.200;5.792;2023-04-24T10:14:16;10.10;99.90
53310;DHT22;39197;53.200;5.792;2023-04-24T10:16:42;10.30;99.90
53310;DHT22;39197;53.200;5.792;2023-04-24T10:19:09;10.40;99.90
53310;DHT22;39197;53.200;5.792;2023-04-24T10:21:36;10.30;99.90
53310;DHT22;39197;53.200;5.792;2023-04-24T10:24:11;10.50;99.90
53310;DHT22;39197;53.200;5.792;2023-04-24T10:26:38;10.60;99.90
53310;DHT22;39197;53.200;5.792;2023-04-24T10:29:06;10.50;99.90
53310;DHT22;39197;53.200;5.792;2023-04-24T10:31:36;10.60;99.90
53310;DHT22;39197;53.200;5.792;2023-04-24T10:34:04;10.70;99.90
53310;DHT22;39197;53.200;5.792;2023-04-24T10:36:30;10.70;99.90
53310;DHT22;39197;53.200;5.792;2023-04-24T10:38:59;10.80;99.90
53310;DHT22;39197;53.200;5.792;2023-04-24T10:41:25;10.80;99.90
53310;DHT22;39197;53.200;5.792;2023-04-24T10:46:34;10.80;99.90
53310;DHT22;39197;53.200;5.792;2023-04-24T10:49:03;10.80;99.90
53310;DHT22;39197;53.200;5.792;2023-04-24T10:51:47;10.60;99.90
53310;DHT22;39197;53.200;5.792;2023-04-24T10:56:53;9.90;99.90
53310;DHT22;39197;53.200;5.792;2023-04-24T10:59:27;9.70;99.90
53310;DHT22;39197;53.200;5.792;2023-04-24T11:01:54;9.50;99.90
53310;DHT22;39197;53.200;5.792;2023-04-24T11:04:30;9.50;99.90
53310;DHT22;39197;53.200;5.792;2023-04-24T11:06:57;9.50;99.90
53310;DHT22;39197;53.200;5.792;2023-04-24T11:09:34;9.40;99.90
53310;DHT22;39197;53.200;5.792;2023-04-24T11:12:11;9.50;99.90
53310;DHT22;39197;53.200;5.792;2023-04-24T11:20:10;9.60;99.90
53310;DHT22;39197;53.200;5.792;2023-04-24T11:22:38;9.70;99.90
53310;DHT22;39197;53.200;5.792;2023-04-24T11:25:08;9.90;99.90
53310;DHT22;39197;53.200;5.792;2023-04-24T11:27:44;9.90;99.90
53310;DHT22;39197;53.200;5.792;2023-04-24T11:30:11;9.90;99.90
53310;DHT22;39197;53.200;5.792;2023-04-24T11:32:39;10.00;99.90
53310;DHT22;39197;53.200;5.792;2023-04-24T11:37:40;9.70;99.90
53310;DHT22;39197;53.200;5.792;2023-04-24T11:40:11;9.80;99.90
53310;DHT22;39197;53.200;5.792;2023-04-24T11:42:38;9.80;99.90
53310;DHT22;39197;53.200;5.792;2023-04-24T11:45:08;9.80;99.90
53310;DHT22;39197;53.200;5.792;2023-04-24T11:47:35;10.00;99.90
53310;DHT22;39197;53.200;5.792;2023-04-24T11:50:01;10.10;99.90
53310;DHT22;39197;53.200;5.792;2023-04-24T11:52:29;10.30;99.90
53310;DHT22;39197;53.200;5.792;2023-04-24T11:54:55;10.30;99.90
53310;DHT22;39197;53.200;5.792;2023-04-24T11:57:22;10.60;99.90
53310;DHT22;39197;53.200;5.792;2023-04-24T11:59:49;10.80;99.90
53310;DHT22;39197;53.200;5.792;2023-04-24T12:02:22;11.30;99.90
53310;DHT22;39197;53.200;5.792;2023-04-24T12:04:48;11.60;99.90
53310;DHT22;39197;53.200;5.792;2023-04-24T12:07:13;11.50;99.90
53310;DHT22;39197;53.200;5.792;2023-04-24T12:09:43;11.80;99.90
53310;DHT22;39197;53.200;5.792;2023-04-24T12:12:17;11.50;99.90
53310;DHT22;39197;53.200;5.792;2023-04-24T12:14:47;11.50;99.90
53310;DHT22;39197;53.200;5.792;2023-04-24T12:17:13;11.60;99.90
53310;DHT22;39197;53.200;5.792;2023-04-24T12:19:46;12.20;99.90
53310;DHT22;39197;53.200;5.792;2023-04-24T12:22:25;12.30;99.90
53310;DHT22;39197;53.200;5.792;2023-04-24T12:25:05;12.20;99.90
53310;DHT22;39197;53.200;5.792;2023-04-24T12:27:33;12.10;99.90
53310;DHT22;39197;53.200;5.792;2023-04-24T12:30:03;11.80;99.90
53310;DHT22;39197;53.200;5.792;2023-04-24T12:32:29;11.60;99.90
53310;DHT22;39197;53.200;5.792;2023-04-24T12:35:03;11.50;99.90
53310;DHT22;39197;53.200;5.792;2023-04-24T12:37:33;11.60;99.90
53310;DHT22;39197;53.200;5.792;2023-04-24T12:40:09;11.60;99.90
53310;DHT22;39197;53.200;5.792;2023-04-24T12:42:45;11.50;99.90
53310;DHT22;39197;53.200;5.792;2023-04-24T12:45:14;11.20;99.90
53310;DHT22;39197;53.200;5.792;2023-04-24T12:47:50;11.10;99.90
53310;DHT22;39197;53.200;5.792;2023-04-24T12:50:18;11.00;99.90
53310;DHT22;39197;53.200;5.792;2023-04-24T12:52:56;11.10;99.90
53310;DHT22;39197;53.200;5.792;2023-04-24T12:55:28;10.90;99.90
53310;DHT22;39197;53.200;5.792;2023-04-24T12:58:29;11.20;99.90
53310;DHT22;39197;53.200;5.792;2023-04-24T13:00:58;10.90;99.90
53310;DHT22;39197;53.200;5.792;2023-04-24T13:03:23;11.10;99.90
53310;DHT22;39197;53.200;5.792;2023-04-24T13:05:49;10.80;99.90
53310;DHT22;39197;53.200;5.792;2023-04-24T13:08:15;10.80;99.90
53310;DHT22;39197;53.200;5.792;2023-04-24T13:10:41;10.60;99.90
53310;DHT22;39197;53.200;5.792;2023-04-24T13:13:06;10.60;99.90
53310;DHT22;39197;53.200;5.792;2023-04-24T13:15:32;10.50;99.90
53310;DHT22;39197;53.200;5.792;2023-04-24T13:17:58;10.30;99.90
53310;DHT22;39197;53.200;5.792;2023-04-24T13:20:24;10.20;99.90
53310;DHT22;39197;53.200;5.792;2023-04-24T13:22:49;10.20;99.90
53310;DHT22;39197;53.200;5.792;2023-04-24T13:25:15;10.10;99.90
53310;DHT22;39197;53.200;5.792;2023-04-24T13:27:42;10.10;99.90
53310;DHT22;39197;53.200;5.792;2023-04-24T13:30:08;10.00;99.90
53310;DHT22;39197;53.200;5.792;2023-04-24T13:32:34;10.00;99.90
53310;DHT22;39197;53.200;5.792;2023-04-24T13:35:00;9.80;99.90
53310;DHT22;39197;53.200;5.792;2023-04-24T13:37:26;9.70;99.90
53310;DHT22;39197;53.200;5.792;2023-04-24T13:39:51;9.70;99.90
53310;DHT22;39197;53.200;5.792;2023-04-24T13:42:17;9.80;99.90
53310;DHT22;39197;53.200;5.792;2023-04-24T13:44:44;9.90;99.90
53310;DHT22;39197;53.200;5.792;2023-04-24T13:47:09;10.10;99.90
53310;DHT22;39197;53.200;5.792;2023-04-24T13:49:35;10.10;99.90
53310;DHT22;39197;53.200;5.792;2023-04-24T13:52:01;10.00;99.90
53310;DHT22;39197;53.200;5.792;2023-04-24T13:54:27;9.60;99.90
53310;DHT22;39197;53.200;5.792;2023-04-24T13:56:52;9.60;99.90
53310;DHT22;39197;53.200;5.792;2023-04-24T13:59:20;9.70;99.90
53310;DHT22;39197;53.200;5.792;2023-04-24T14:01:46;9.70;99.90
53310;DHT22;39197;53.200;5.792;2023-04-24T14:04:12;9.70;99.90
53310;DHT22;39197;53.200;5.792;2023-04-24T14:06:38;9.70;99.90
53310;DHT22;39197;53.200;5.792;2023-04-24T14:09:03;9.70;99.90
53310;DHT22;39197;53.200;5.792;2023-04-24T14:11:29;9.70;99.90
53310;DHT22;39197;53.200;5.792;2023-04-24T14:13:55;9.70;99.90
53310;DHT22;39197;53.200;5.792;2023-04-24T14:16:24;9.60;99.90
53310;DHT22;39197;53.200;5.792;2023-04-24T14:18:50;9.60;99.90
53310;DHT22;39197;53.200;5.792;2023-04-24T14:21:16;9.60;99.90
53310;DHT22;39197;53.200;5.792;2023-04-24T14:23:41;9.70;99.90
53310;DHT22;39197;53.200;5.792;2023-04-24T14:26:07;9.60;99.90
53310;DHT22;39197;53.200;5.792;2023-04-24T14:28:33;9.60;99.90
53310;DHT22;39197;53.200;5.792;2023-04-24T14:30:59;9.60;99.90
53310;DHT22;39197;53.200;5.792;2023-04-24T14:33:24;9.40;99.90
53310;DHT22;39197;53.200;5.792;2023-04-24T14:35:50;9.50;99.90
53310;DHT22;39197;53.200;5.792;2023-04-24T14:38:16;9.40;99.90
53310;DHT22;39197;53.200;5.792;2023-04-24T14:40:42;9.50;99.90
53310;DHT22;39197;53.200;5.792;2023-04-24T14:43:07;9.60;99.90
53310;DHT22;39197;53.200;5.792;2023-04-24T14:45:33;9.60;99.90
53310;DHT22;39197;53.200;5.792;2023-04-24T14:47:58;9.60;99.90
53310;DHT22;39197;53.200;5.792;2023-04-24T14:50:24;9.70;99.90
53310;DHT22;39197;53.200;5.792;2023-04-24T14:52:53;9.60;99.90
53310;DHT22;39197;53.200;5.792;2023-04-24T14:55:20;9.50;99.90
53310;DHT22;39197;53.200;5.792;2023-04-24T14:57:46;9.40;99.90
53310;DHT22;39197;53.200;5.792;2023-04-24T15:00:12;9.30;99.90
53310;DHT22;39197;53.200;5.792;2023-04-24T15:02:38;9.30;99.90
53310;DHT22;39197;53.200;5.792;2023-04-24T15:05:09;9.40;99.90
53310;DHT22;39197;53.200;5.792;2023-04-24T15:07:35;9.50;99.90
53310;DHT22;39197;53.200;5.792;2023-04-24T15:10:02;9.40;99.90
53310;DHT22;39197;53.200;5.792;2023-04-24T15:12:27;9.40;99.90
53310;DHT22;39197;53.200;5.792;2023-04-24T15:14:54;9.20;99.90
53310;DHT22;39197;53.200;5.792;2023-04-24T15:17:20;9.10;99.90
53310;DHT22;39197;53.200;5.792;2023-04-24T15:19:45;9.00;99.90
53310;DHT22;39197;53.200;5.792;2023-04-24T15:22:11;9.00;99.90
53310;DHT22;39197;53.200;5.792;2023-04-24T15:24:36;9.00;99.90
53310;DHT22;39197;53.200;5.792;2023-04-24T15:27:02;9.10;99.90
53310;DHT22;39197;53.200;5.792;2023-04-24T15:29:29;9.20;99.90
53310;DHT22;39197;53.200;5.792;2023-04-24T15:31:54;9.20;99.90
53310;DHT22;39197;53.200;5.792;2023-04-24T15:34:20;9.20;99.90
53310;DHT22;39197;53.200;5.792;2023-04-24T15:36:46;9.10;99.90
53310;DHT22;39197;53.200;5.792;2023-04-24T15:39:11;9.10;99.90
53310;DHT22;39197;53.200;5.792;2023-04-24T15:41:37;9.10;99.90
53310;DHT22;39197;53.200;5.792;2023-04-24T15:44:03;9.10;99.90
53310;DHT22;39197;53.200;5.792;2023-04-24T15:46:29;9.20;99.90
53310;DHT22;39197;53.200;5.792;2023-04-24T15:48:54;9.30;99.90
53310;DHT22;39197;53.200;5.792;2023-04-24T15:51:20;9.20;99.90